| time (UTC) | temp C | wind direction | speed KPH | gust KPH | rain 1hr cm | rain 24hr cm | rain mn cm | humidity % | barometer mb |
| 20260506202020 | 17 | 0 | 1.6 | 11.3 | 0.03 | 0.23 | 0.23 | 88 | 1006.3 |
| 20260506201536 | 17 | 0 | 1.6 | 11.3 | 0.03 | 0.23 | 0.23 | 88 | 1006.4 |
| 20260506201019 | 17 | 200 | 0.0 | 12.9 | 0.03 | 0.23 | 0.23 | 90 | 1006.5 |
| 20260506200520 | 16 | 0 | 3.2 | 14.5 | 0.03 | 0.23 | 0.23 | 89 | 1006.6 |
| 20260506200048 | 16 | 0 | 1.6 | 14.5 | 0.03 | 0.23 | 0.23 | 90 | 1006.7 |
| 20260506195516 | 16 | 184 | 1.6 | 14.5 | 0.03 | 0.23 | 0.23 | 90 | 1006.6 |
| 20260506195017 | 16 | 0 | 0.0 | 8.0 | 0.03 | 0.23 | 0.23 | 90 | 1006.7 |
| 20260506194535 | 16 | 0 | 1.6 | 8.0 | 0.03 | 0.23 | 0.23 | 90 | 1006.7 |
| 20260506194017 | 16 | 0 | 0.0 | 8.0 | 0.03 | 0.23 | 0.23 | 91 | 1006.8 |
| 20260506193518 | 16 | 194 | 0.0 | 4.8 | 0.03 | 0.23 | 0.23 | 91 | 1006.9 |
| 20260506193034 | 16 | 0 | 0.0 | 6.4 | 0.00 | 0.20 | 0.20 | 90 | 1007.0 |
| 20260506192516 | 16 | 215 | 1.6 | 6.4 | 0.00 | 0.20 | 0.20 | 90 | 1007.0 |
| 20260506192017 | 16 | 0 | 0.0 | 6.4 | 0.00 | 0.20 | 0.20 | 89 | 1007.0 |
| 20260506191533 | 16 | 0 | 0.0 | 12.9 | 0.00 | 0.20 | 0.20 | 89 | 1007.2 |
| 20260506191017 | 16 | 265 | 0.0 | 16.1 | 0.00 | 0.20 | 0.20 | 89 | 1007.2 |
| 20260506190518 | 16 | 0 | 0.0 | 16.1 | 0.00 | 0.20 | 0.20 | 88 | 1007.2 |
| 20260506190037 | 17 | 196 | 1.6 | 12.9 | 0.00 | 0.20 | 0.20 | 87 | 1007.3 |
| 20260506185515 | 17 | 0 | 1.6 | 11.3 | 0.00 | 0.20 | 0.20 | 86 | 1007.1 |
| 20260506185017 | 17 | 0 | 0.0 | 17.7 | 0.00 | 0.20 | 0.20 | 86 | 1007.2 |
| 20260506184538 | 17 | 0 | 4.8 | 17.7 | 0.00 | 0.20 | 0.20 | 85 | 1007.1 |
| 20260506184016 | 17 | 0 | 0.0 | 12.9 | 0.00 | 0.20 | 0.20 | 86 | 1007.2 |
| 20260506183516 | 17 | 242 | 0.0 | 14.5 | 0.00 | 0.20 | 0.20 | 86 | 1007.1 |
| 20260506183034 | 17 | 0 | 3.2 | 14.5 | 0.00 | 0.20 | 0.20 | 86 | 1007.0 |
| 20260506182516 | 17 | 229 | 3.2 | 17.7 | 0.00 | 0.20 | 0.20 | 87 | 1007.2 |
| 20260506182021 | 17 | 0 | 0.0 | 17.7 | 0.00 | 0.20 | 0.20 | 88 | 1007.3 |
| 20260506181534 | 17 | 0 | 0.0 | 11.3 | 0.00 | 0.20 | 0.20 | 88 | 1007.3 |
| 20260506181015 | 17 | 0 | 0.0 | 6.4 | 0.00 | 0.20 | 0.20 | 88 | 1007.4 |
| 20260506180516 | 17 | 0 | 0.0 | 8.0 | 0.03 | 0.20 | 0.20 | 88 | 1007.2 |
| 20260506180031 | 17 | 0 | 0.0 | 8.0 | 0.03 | 0.20 | 0.20 | 88 | 1007.2 |
| 20260506175517 | 17 | 0 | 0.0 | 9.7 | 0.03 | 0.20 | 0.20 | 87 | 1007.4 |
| 20260506175015 | 17 | 0 | 0.0 | 9.7 | 0.05 | 0.20 | 0.20 | 87 | 1007.5 |
| 20260506174536 | 17 | 0 | 1.6 | 9.7 | 0.05 | 0.20 | 0.20 | 87 | 1007.7 |
| 20260506174017 | 17 | 0 | 0.0 | 12.9 | 0.05 | 0.20 | 0.20 | 87 | 1007.7 |
| 20260506173517 | 17 | 195 | 1.6 | 12.9 | 0.05 | 0.20 | 0.20 | 87 | 1007.6 |
| 20260506173047 | 17 | 0 | 0.0 | 12.9 | 0.08 | 0.20 | 0.20 | 88 | 1007.7 |
| 20260506172515 | 17 | 175 | 0.0 | 8.0 | 0.08 | 0.20 | 0.20 | 89 | 1007.5 |
| 20260506172017 | 17 | 0 | 0.0 | 8.0 | 0.08 | 0.20 | 0.20 | 89 | 1007.6 |
| 20260506171536 | 17 | 0 | 1.6 | 8.0 | 0.10 | 0.20 | 0.20 | 89 | 1007.7 |
| 20260506171016 | 17 | 0 | 0.0 | 8.0 | 0.10 | 0.20 | 0.20 | 89 | 1007.6 |
| 20260506170521 | 17 | 0 | 0.0 | 11.3 | 0.10 | 0.18 | 0.18 | 89 | 1007.3 |
| 20260506170035 | 17 | 0 | 3.2 | 11.3 | 0.13 | 0.18 | 0.18 | 89 | 1007.6 |
| 20260506165517 | 17 | 0 | 0.0 | 3.2 | 0.13 | 0.18 | 0.18 | 89 | 1007.7 |
| 20260506165017 | 17 | 0 | 0.0 | 6.4 | 0.13 | 0.15 | 0.15 | 89 | 1007.5 |
| 20260506164538 | 17 | 0 | 0.0 | 6.4 | 0.13 | 0.15 | 0.15 | 89 | 1007.7 |
| 20260506164019 | 17 | 0 | 0.0 | 9.7 | 0.13 | 0.15 | 0.15 | 89 | 1007.9 |
| 20260506163519 | 17 | 0 | 0.0 | 9.7 | 0.15 | 0.15 | 0.15 | 88 | 1008.1 |
| 20260506163053 | 17 | 0 | 0.0 | 4.8 | 0.13 | 0.13 | 0.13 | 88 | 1008.4 |
| 20260506162517 | 17 | 0 | 0.0 | 4.8 | 0.13 | 0.13 | 0.13 | 87 | 1008.6 |
| 20260506162017 | 17 | 200 | 0.0 | 9.7 | 0.13 | 0.13 | 0.13 | 87 | 1008.7 |
| 20260506161537 | 17 | 0 | 0.0 | 9.7 | 0.10 | 0.10 | 0.10 | 86 | 1008.8 |
| 20260506161019 | 17 | 153 | 0.0 | 8.0 | 0.10 | 0.10 | 0.10 | 86 | 1008.9 |
| 20260506160519 | 17 | 198 | 0.0 | 6.4 | 0.08 | 0.08 | 0.08 | 85 | 1009.0 |
| 20260506160036 | 17 | 0 | 0.0 | 6.4 | 0.05 | 0.05 | 0.05 | 84 | 1008.9 |
| 20260506155519 | 17 | 0 | 0.0 | 6.4 | 0.05 | 0.05 | 0.05 | 81 | 1009.3 |
| 20260506155018 | 17 | 0 | 0.0 | 4.8 | 0.03 | 0.03 | 0.03 | 81 | 1009.3 |
| 20260506154538 | 18 | 0 | 0.0 | 4.8 | 0.03 | 0.03 | 0.03 | 81 | 1009.2 |
| 20260506154019 | 18 | 0 | 0.0 | 4.8 | 0.03 | 0.03 | 0.03 | 80 | 1009.0 |
| 20260506153519 | 18 | 0 | 0.0 | 4.8 | 0.00 | 0.00 | 0.00 | 79 | 1008.9 |
| 20260506153035 | 18 | 0 | 0.0 | 6.4 | 0.00 | 0.00 | 0.00 | 78 | 1009.0 |
| 20260506152518 | 18 | 0 | 0.0 | 11.3 | 0.00 | 0.00 | 0.00 | 78 | 1009.0 |
| 20260506152017 | 18 | 0 | 0.0 | 11.3 | 0.00 | 0.00 | 0.00 | 77 | 1008.9 |
| 20260506151540 | 18 | 229 | 1.6 | 12.9 | 0.00 | 0.00 | 0.00 | 75 | 1009.1 |
| 20260506151019 | 19 | 0 | 0.0 | 12.9 | 0.00 | 0.00 | 0.00 | 74 | 1008.9 |
| 20260506150519 | 19 | 0 | 1.6 | 12.9 | 0.00 | 0.00 | 0.00 | 71 | 1008.8 |
| 20260506150035 | 19 | 0 | 0.0 | 14.5 | 0.00 | 0.00 | 0.00 | 71 | 1008.7 |
| 20260506145520 | 19 | 304 | 1.6 | 17.7 | 0.00 | 0.00 | 0.00 | 70 | 1008.9 |
| 20260506145017 | 20 | 209 | 1.6 | 17.7 | 0.00 | 0.00 | 0.00 | 69 | 1009.0 |
| 20260506144534 | 20 | 228 | 1.6 | 20.9 | 0.00 | 0.00 | 0.00 | 67 | 1008.9 |
| 20260506144017 | 20 | 164 | 3.2 | 20.9 | 0.00 | 0.00 | 0.00 | 67 | 1009.0 |
| 20260506143519 | 20 | 180 | 3.2 | 27.4 | 0.00 | 0.00 | 0.00 | 66 | 1009.0 |
| 20260506143033 | 20 | 0 | 1.6 | 27.4 | 0.00 | 0.00 | 0.00 | 67 | 1009.0 |
| 20260506142522 | 20 | 218 | 0.0 | 25.7 | 0.00 | 0.00 | 0.00 | 68 | 1009.2 |
| 20260506142021 | 20 | 182 | 6.4 | 25.7 | 0.00 | 0.00 | 0.00 | 65 | 1009.0 |
| 20260506141536 | 20 | 0 | 1.6 | 17.7 | 0.00 | 0.00 | 0.00 | 68 | 1008.9 |
| 20260506141023 | 20 | 196 | 1.6 | 12.9 | 0.00 | 0.00 | 0.00 | 66 | 1008.7 |
| 20260506140517 | 20 | 221 | 1.6 | 12.9 | 0.00 | 0.00 | 0.00 | 68 | 1008.7 |
| 20260506140036 | 20 | 194 | 1.6 | 11.3 | 0.00 | 0.00 | 0.00 | 68 | 1008.8 |
| 20260506135518 | 20 | 0 | 3.2 | 11.3 | 0.00 | 0.00 | 0.00 | 68 | 1008.9 |
| 20260506135025 | 20 | 0 | 1.6 | 17.7 | 0.00 | 0.00 | 0.00 | 68 | 1008.9 |
| 20260506134536 | 20 | 225 | 0.0 | 17.7 | 0.00 | 0.00 | 0.00 | 69 | 1009.0 |
| 20260506134019 | 20 | 270 | 1.6 | 17.7 | 0.00 | 0.00 | 0.00 | 68 | 1008.7 |
| 20260506133517 | 20 | 252 | 3.2 | 14.5 | 0.00 | 0.00 | 0.00 | 68 | 1008.9 |
| 20260506133034 | 20 | 0 | 0.0 | 9.7 | 0.00 | 0.00 | 0.00 | 68 | 1009.0 |
| 20260506132522 | 20 | 0 | 0.0 | 12.9 | 0.00 | 0.00 | 0.00 | 69 | 1009.0 |
| 20260506132019 | 20 | 0 | 1.6 | 12.9 | 0.00 | 0.00 | 0.00 | 68 | 1009.2 |
| 20260506131537 | 20 | 244 | 3.2 | 20.9 | 0.00 | 0.00 | 0.00 | 68 | 1009.2 |
| 20260506131018 | 19 | 221 | 1.6 | 20.9 | 0.00 | 0.00 | 0.00 | 69 | 1009.2 |
| 20260506130520 | 19 | 231 | 4.8 | 20.9 | 0.00 | 0.00 | 0.00 | 69 | 1009.1 |
| 20260506130039 | 19 | 0 | 3.2 | 14.5 | 0.00 | 0.00 | 0.00 | 69 | 1009.0 |
| 20260506125516 | 19 | 0 | 3.2 | 16.1 | 0.00 | 0.00 | 0.00 | 69 | 1009.1 |
| 20260506125017 | 19 | 225 | 1.6 | 16.1 | 0.00 | 0.00 | 0.00 | 70 | 1009.0 |
| 20260506124535 | 19 | 182 | 4.8 | 20.9 | 0.00 | 0.00 | 0.00 | 69 | 1008.8 |
| 20260506124019 | 19 | 0 | 3.2 | 20.9 | 0.00 | 0.00 | 0.00 | 69 | 1008.7 |
| 20260506123520 | 19 | 0 | 1.6 | 9.7 | 0.00 | 0.00 | 0.00 | 69 | 1008.9 |
| 20260506123036 | 19 | 0 | 0.0 | 8.0 | 0.00 | 0.00 | 0.00 | 71 | 1008.8 |
| 20260506122517 | 18 | 180 | 0.0 | 6.4 | 0.00 | 0.00 | 0.00 | 71 | 1008.9 |
| 20260506122016 | 18 | 0 | 0.0 | 16.1 | 0.00 | 0.00 | 0.00 | 72 | 1008.8 |
| 20260506121533 | 18 | 225 | 0.0 | 16.1 | 0.00 | 0.00 | 0.00 | 72 | 1009.0 |
| 20260506121017 | 18 | 231 | 4.8 | 16.1 | 0.00 | 0.00 | 0.00 | 72 | 1008.9 |
| 20260506120519 | 18 | 0 | 1.6 | 12.9 | 0.00 | 0.00 | 0.00 | 72 | 1009.0 |
| 20260506120042 | 18 | 0 | 0.0 | 12.9 | 0.00 | 0.00 | 0.00 | 73 | 1009.0 |
| 20260506115519 | 18 | 247 | 1.6 | 12.9 | 0.00 | 0.00 | 0.00 | 72 | 1009.0 |
| 20260506115017 | 18 | 217 | 3.2 | 16.1 | 0.00 | 0.00 | 0.00 | 72 | 1009.1 |
| 20260506114535 | 18 | 198 | 0.0 | 16.1 | 0.00 | 0.00 | 0.00 | 72 | 1009.1 |
| 20260506114018 | 18 | 0 | 3.2 | 16.1 | 0.00 | 0.00 | 0.00 | 72 | 1009.3 |
| 20260506113520 | 18 | 192 | 1.6 | 16.1 | 0.00 | 0.00 | 0.00 | 72 | 1009.4 |
| 20260506113035 | 18 | 223 | 4.8 | 16.1 | 0.00 | 0.00 | 0.00 | 71 | 1009.3 |
| 20260506112521 | 18 | 0 | 4.8 | 16.1 | 0.00 | 0.00 | 0.00 | 71 | 1009.4 |
| 20260506112023 | 18 | 0 | 1.6 | 24.1 | 0.00 | 0.00 | 0.00 | 72 | 1009.0 |
| 20260506111535 | 18 | 203 | 1.6 | 24.1 | 0.00 | 0.00 | 0.00 | 73 | 1009.1 |
| 20260506111019 | 18 | 185 | 3.2 | 24.1 | 0.00 | 0.00 | 0.00 | 73 | 1009.0 |
| 20260506110518 | 18 | 240 | 3.2 | 20.9 | 0.00 | 0.00 | 0.00 | 73 | 1009.1 |
| 20260506110034 | 18 | 225 | 4.8 | 17.7 | 0.00 | 0.00 | 0.00 | 74 | 1008.9 |
| 20260506105517 | 18 | 186 | 0.0 | 11.3 | 0.00 | 0.00 | 0.00 | 74 | 1008.9 |
| 20260506105019 | 18 | 190 | 0.0 | 17.7 | 0.00 | 0.00 | 0.00 | 74 | 1008.8 |
| 20260506104536 | 17 | 206 | 4.8 | 17.7 | 0.00 | 0.00 | 0.00 | 74 | 1008.9 |
| 20260506104022 | 17 | 250 | 3.2 | 12.9 | 0.00 | 0.00 | 0.00 | 75 | 1008.7 |
| 20260506103518 | 17 | 180 | 1.6 | 17.7 | 0.00 | 0.00 | 0.00 | 75 | 1008.6 |
| 20260506103035 | 17 | 165 | 1.6 | 17.7 | 0.00 | 0.00 | 0.00 | 75 | 1008.6 |
| 20260506102517 | 17 | 171 | 3.2 | 19.3 | 0.00 | 0.00 | 0.00 | 75 | 1008.8 |
| 20260506102019 | 17 | 0 | 4.8 | 19.3 | 0.00 | 0.00 | 0.00 | 75 | 1008.8 |
| 20260506101535 | 17 | 206 | 0.0 | 19.3 | 0.00 | 0.00 | 0.00 | 75 | 1008.8 |
| 20260506101016 | 17 | 225 | 3.2 | 19.3 | 0.00 | 0.00 | 0.00 | 75 | 1008.7 |
| 20260506100518 | 17 | 0 | 1.6 | 11.3 | 0.00 | 0.00 | 0.00 | 75 | 1008.8 |
| 20260506100037 | 17 | 0 | 1.6 | 11.3 | 0.00 | 0.00 | 0.00 | 74 | 1008.5 |
| 20260506095516 | 17 | 0 | 1.6 | 12.9 | 0.00 | 0.00 | 0.00 | 74 | 1008.5 |
| 20260506095019 | 18 | 182 | 1.6 | 12.9 | 0.00 | 0.00 | 0.00 | 74 | 1008.6 |
| 20260506094536 | 17 | 166 | 1.6 | 12.9 | 0.00 | 0.00 | 0.00 | 74 | 1008.6 |
| 20260506094018 | 18 | 187 | 1.6 | 12.9 | 0.00 | 0.00 | 0.00 | 74 | 1008.5 |
| 20260506093525 | 17 | 0 | 1.6 | 16.1 | 0.00 | 0.00 | 0.00 | 74 | 1008.4 |
| 20260506093036 | 17 | 207 | 3.2 | 17.7 | 0.00 | 0.00 | 0.00 | 74 | 1008.5 |
| 20260506092518 | 17 | 0 | 3.2 | 17.7 | 0.00 | 0.00 | 0.00 | 75 | 1008.6 |
| 20260506092017 | 17 | 220 | 0.0 | 14.5 | 0.00 | 0.00 | 0.00 | 75 | 1008.6 |
| 20260506091535 | 17 | 325 | 1.6 | 14.5 | 0.00 | 0.00 | 0.00 | 75 | 1008.6 |
| 20260506091020 | 17 | 0 | 0.0 | 14.5 | 0.00 | 0.00 | 0.00 | 75 | 1008.7 |
| 20260506090518 | 17 | 0 | 0.0 | 16.1 | 0.00 | 0.00 | 0.00 | 74 | 1008.7 |
| 20260506090035 | 17 | 173 | 3.2 | 16.1 | 0.00 | 0.00 | 0.00 | 74 | 1008.9 |
| 20260506085516 | 17 | 346 | 1.6 | 9.7 | 0.00 | 0.00 | 0.00 | 75 | 1008.8 |
| 20260506085018 | 17 | 0 | 3.2 | 9.7 | 0.00 | 0.00 | 0.00 | 75 | 1008.8 |
| 20260506084542 | 17 | 0 | 0.0 | 8.0 | 0.00 | 0.00 | 0.00 | 75 | 1008.8 |
| 20260506084017 | 17 | 0 | 0.0 | 9.7 | 0.00 | 0.00 | 0.00 | 75 | 1009.0 |
| 20260506083519 | 17 | 0 | 0.0 | 12.9 | 0.00 | 0.00 | 0.00 | 75 | 1009.0 |
| 20260506083034 | 18 | 188 | 1.6 | 12.9 | 0.00 | 0.00 | 0.00 | 74 | 1008.8 |
| 20260506082520 | 18 | 0 | 0.0 | 12.9 | 0.00 | 0.00 | 0.00 | 74 | 1008.8 |
| 20260506082017 | 18 | 145 | 0.0 | 12.9 | 0.00 | 0.00 | 0.00 | 74 | 1008.8 |
| 20260506081541 | 18 | 192 | 0.0 | 20.9 | 0.00 | 0.00 | 0.00 | 74 | 1008.8 |
| 20260506081019 | 18 | 0 | 3.2 | 20.9 | 0.00 | 0.00 | 0.00 | 74 | 1008.9 |
| 20260506080519 | 18 | 191 | 1.6 | 12.9 | 0.00 | 0.00 | 0.00 | 74 | 1008.9 |
| 20260506073519 | 18 | 193 | 0.0 | 11.3 | 0.00 | 0.00 | 0.00 | 72 | 1008.9 |
| 20260506073035 | 18 | 0 | 0.0 | 11.3 | 0.00 | 0.00 | 0.00 | 72 | 1008.9 |
| 20260506072518 | 18 | 204 | 0.0 | 9.7 | 0.00 | 0.00 | 0.00 | 72 | 1009.0 |
| 20260506072021 | 18 | 0 | 0.0 | 8.0 | 0.00 | 0.00 | 0.00 | 72 | 1009.0 |
| 20260506071538 | 18 | 0 | 0.0 | 11.3 | 0.00 | 0.00 | 0.00 | 71 | 1009.0 |
| 20260506071019 | 18 | 204 | 0.0 | 11.3 | 0.00 | 0.00 | 0.00 | 71 | 1009.0 |
| 20260506070519 | 18 | 0 | 0.0 | 8.0 | 0.00 | 0.00 | 0.00 | 71 | 1009.0 |
| 20260506062017 | 18 | 0 | 0.0 | 6.4 | 0.00 | 0.00 | 0.00 | 69 | 1009.3 |
| 20260506061535 | 18 | 0 | 0.0 | 11.3 | 0.00 | 0.00 | 0.00 | 68 | 1009.4 |
| 20260506061019 | 18 | 0 | 0.0 | 11.3 | 0.00 | 0.00 | 0.00 | 68 | 1009.3 |
| 20260506060517 | 18 | 198 | 0.0 | 9.7 | 0.00 | 0.00 | 0.00 | 68 | 1009.3 |
| 20260506051018 | 19 | 0 | 0.0 | 9.7 | 0.00 | 0.00 | 0.00 | 64 | 1009.8 |
| 20260506050516 | 19 | 192 | 1.6 | 11.3 | 0.00 | 0.00 | 0.00 | 64 | 1009.8 |
| 20260506045017 | 19 | 188 | 0.0 | 8.0 | 0.00 | 0.00 | 0.00 | 63 | 1009.9 |
| 20260506044532 | 20 | 0 | 1.6 | 20.9 | 0.00 | 0.00 | 0.00 | 63 | 1009.9 |
| 20260506044018 | 20 | 192 | 3.2 | 20.9 | 0.00 | 0.00 | 0.00 | 62 | 1009.9 |
| 20260506043520 | 20 | 204 | 1.6 | 8.0 | 0.00 | 0.00 | 0.00 | 62 | 1009.8 |
| 20260506043032 | 20 | 0 | 0.0 | 12.9 | 0.00 | 0.00 | 0.00 | 62 | 1009.9 |
| 20260506042518 | 20 | 0 | 3.2 | 16.1 | 0.00 | 0.00 | 0.00 | 61 | 1009.8 |
| 20260506042016 | 20 | 237 | 1.6 | 16.1 | 0.00 | 0.00 | 0.00 | 61 | 1009.8 |
| 20260506041551 | 20 | 190 | 1.6 | 12.9 | 0.00 | 0.00 | 0.00 | 61 | 1009.8 |
| 20260506041018 | 20 | 194 | 1.6 | 14.5 | 0.00 | 0.00 | 0.00 | 60 | 1009.9 |
| 20260506040518 | 20 | 214 | 1.6 | 14.5 | 0.00 | 0.00 | 0.00 | 60 | 1010.0 |
| 20260506040034 | 20 | 0 | 1.6 | 9.7 | 0.00 | 0.00 | 0.00 | 60 | 1009.8 |
| 20260506035521 | 20 | 191 | 1.6 | 9.7 | 0.00 | 0.00 | 0.00 | 60 | 1009.9 |
| 20260506035018 | 20 | 201 | 1.6 | 9.7 | 0.00 | 0.00 | 0.00 | 59 | 1009.9 |
| 20260506034548 | 20 | 0 | 0.0 | 16.1 | 0.00 | 0.00 | 0.00 | 59 | 1009.8 |
| 20260506034023 | 20 | 0 | 1.6 | 16.1 | 0.00 | 0.00 | 0.00 | 59 | 1009.8 |
| 20260506033520 | 20 | 148 | 3.2 | 14.5 | 0.00 | 0.00 | 0.00 | 59 | 1009.7 |
| 20260506033033 | 20 | 0 | 3.2 | 14.5 | 0.00 | 0.00 | 0.00 | 59 | 1009.8 |
| 20260506032518 | 20 | 207 | 3.2 | 14.5 | 0.00 | 0.00 | 0.00 | 59 | 1009.7 |
| 20260506032016 | 20 | 0 | 0.0 | 9.7 | 0.00 | 0.00 | 0.00 | 58 | 1009.7 |
| 20260506031535 | 20 | 207 | 0.0 | 11.3 | 0.00 | 0.00 | 0.00 | 58 | 1009.7 |
| 20260506031015 | 20 | 0 | 1.6 | 16.1 | 0.00 | 0.00 | 0.00 | 58 | 1009.7 |
| 20260506030517 | 20 | 226 | 0.0 | 16.1 | 0.00 | 0.00 | 0.00 | 57 | 1009.7 |
| 20260506030037 | 20 | 180 | 4.8 | 16.1 | 0.00 | 0.00 | 0.00 | 57 | 1009.7 |
| 20260506025519 | 20 | 196 | 1.6 | 12.9 | 0.00 | 0.00 | 0.00 | 57 | 1009.8 |
| 20260506025015 | 20 | 0 | 1.6 | 16.1 | 0.00 | 0.00 | 0.00 | 57 | 1009.7 |
| 20260506024538 | 21 | 0 | 3.2 | 16.1 | 0.00 | 0.00 | 0.00 | 57 | 1009.7 |
| 20260506024018 | 21 | 211 | 3.2 | 16.1 | 0.00 | 0.00 | 0.00 | 57 | 1009.7 |
| 20260506023521 | 21 | 0 | 4.8 | 14.5 | 0.00 | 0.00 | 0.00 | 57 | 1009.6 |
| 20260506023033 | 21 | 192 | 1.6 | 12.9 | 0.00 | 0.00 | 0.00 | 56 | 1009.6 |
| 20260506022518 | 21 | 0 | 1.6 | 12.9 | 0.00 | 0.00 | 0.00 | 56 | 1009.7 |
| 20260506022016 | 21 | 207 | 1.6 | 16.1 | 0.00 | 0.00 | 0.00 | 56 | 1009.6 |
| 20260506021533 | 21 | 0 | 1.6 | 16.1 | 0.00 | 0.00 | 0.00 | 55 | 1009.6 |
| 20260506021018 | 21 | 0 | 3.2 | 12.9 | 0.00 | 0.00 | 0.00 | 55 | 1009.6 |
| 20260506020521 | 21 | 242 | 1.6 | 14.5 | 0.00 | 0.00 | 0.00 | 54 | 1009.7 |
| 20260506020035 | 21 | 184 | 4.8 | 14.5 | 0.00 | 0.00 | 0.00 | 54 | 1009.6 |
| 20260506015518 | 21 | 0 | 1.6 | 11.3 | 0.00 | 0.00 | 0.00 | 54 | 1009.4 |
| 20260506015016 | 21 | 198 | 1.6 | 25.7 | 0.00 | 0.00 | 0.00 | 53 | 1009.6 |
| 20260506014536 | 22 | 192 | 4.8 | 25.7 | 0.00 | 0.00 | 0.00 | 52 | 1009.5 |
| 20260506014016 | 22 | 217 | 3.2 | 20.9 | 0.00 | 0.00 | 0.00 | 51 | 1009.4 |
| 20260506013515 | 22 | 179 | 4.8 | 24.1 | 0.00 | 0.00 | 0.00 | 50 | 1009.2 |
| 20260506013049 | 22 | 0 | 1.6 | 24.1 | 0.00 | 0.00 | 0.00 | 49 | 1009.4 |
| 20260506012518 | 22 | 189 | 3.2 | 14.5 | 0.00 | 0.00 | 0.00 | 47 | 1009.3 |
| 20260506012016 | 23 | 182 | 3.2 | 16.1 | 0.00 | 0.00 | 0.00 | 45 | 1009.3 |
| 20260506011531 | 23 | 182 | 4.8 | 16.1 | 0.00 | 0.00 | 0.00 | 44 | 1009.2 |
| 20260506011018 | 23 | 173 | 4.8 | 14.5 | 0.00 | 0.00 | 0.00 | 44 | 1009.1 |
| 20260506010518 | 23 | 0 | 1.6 | 19.3 | 0.00 | 0.00 | 0.00 | 43 | 1009.0 |
| 20260506010035 | 23 | 166 | 3.2 | 19.3 | 0.00 | 0.00 | 0.00 | 43 | 1009.0 |
| 20260506005517 | 23 | 178 | 1.6 | 14.5 | 0.00 | 0.00 | 0.00 | 42 | 1008.9 |
| 20260506005015 | 23 | 225 | 3.2 | 14.5 | 0.00 | 0.00 | 0.00 | 42 | 1008.8 |
| 20260506004534 | 23 | 169 | 1.6 | 14.5 | 0.00 | 0.00 | 0.00 | 42 | 1008.7 |
| 20260506004017 | 23 | 195 | 3.2 | 14.5 | 0.00 | 0.00 | 0.00 | 42 | 1008.5 |
| 20260506003517 | 23 | 0 | 1.6 | 11.3 | 0.00 | 0.00 | 0.00 | 42 | 1008.7 |
| 20260506003036 | 23 | 184 | 3.2 | 11.3 | 0.00 | 0.00 | 0.00 | 42 | 1008.5 |
| 20260506002518 | 23 | 0 | 1.6 | 8.0 | 0.00 | 0.00 | 0.00 | 42 | 1008.4 |
| 20260506002016 | 23 | 0 | 1.6 | 9.7 | 0.00 | 0.00 | 0.00 | 42 | 1008.5 |
| 20260506001536 | 23 | 0 | 1.6 | 9.7 | 0.00 | 0.00 | 0.00 | 42 | 1008.4 |
| 20260506001016 | 24 | 202 | 1.6 | 19.3 | 0.00 | 0.00 | 0.00 | 41 | 1008.5 |
| 20260506000515 | 24 | 0 | 1.6 | 19.3 | 0.00 | 0.00 | 0.00 | 41 | 1008.3 |
| 20260506000036 | 24 | 180 | 4.8 | 16.1 | 0.00 | 0.00 | 0.00 | 41 | 1008.3 |
| 20260505235517 | 24 | 0 | 3.2 | 19.3 | 0.00 | 0.00 | 0.00 | 40 | 1008.2 |
| 20260505235021 | 25 | 180 | 3.2 | 20.9 | 0.00 | 0.00 | 0.00 | 40 | 1008.1 |
| 20260505234534 | 25 | 175 | 3.2 | 20.9 | 0.00 | 0.00 | 0.00 | 39 | 1008.1 |
| 20260505234016 | 25 | 234 | 1.6 | 17.7 | 0.00 | 0.00 | 0.00 | 38 | 1008.0 |
| 20260505233517 | 25 | 242 | 1.6 | 14.5 | 0.00 | 0.00 | 0.00 | 37 | 1008.2 |
| 20260505233036 | 25 | 179 | 1.6 | 14.5 | 0.00 | 0.00 | 0.00 | 36 | 1008.1 |
| 20260505232516 | 25 | 201 | 1.6 | 16.1 | 0.00 | 0.00 | 0.00 | 36 | 1008.1 |
| 20260505232015 | 25 | 0 | 0.0 | 16.1 | 0.00 | 0.00 | 0.00 | 35 | 1008.2 |
| 20260505231536 | 25 | 0 | 3.2 | 16.1 | 0.00 | 0.00 | 0.00 | 35 | 1008.1 |
| 20260505231016 | 25 | 213 | 0.0 | 12.9 | 0.00 | 0.00 | 0.00 | 35 | 1008.1 |
| 20260505230516 | 26 | 209 | 0.0 | 16.1 | 0.00 | 0.00 | 0.00 | 35 | 1008.0 |
| 20260505230052 | 26 | 0 | 1.6 | 16.1 | 0.00 | 0.00 | 0.00 | 34 | 1007.9 |
| 20260505225517 | 26 | 292 | 1.6 | 14.5 | 0.00 | 0.00 | 0.00 | 34 | 1007.9 |
| 20260505225016 | 26 | 0 | 1.6 | 14.5 | 0.00 | 0.00 | 0.00 | 33 | 1007.7 |
| 20260505224535 | 26 | 0 | 3.2 | 19.3 | 0.00 | 0.00 | 0.00 | 32 | 1007.9 |
| 20260505224016 | 26 | 194 | 3.2 | 24.1 | 0.00 | 0.00 | 0.00 | 31 | 1007.8 |
| 20260505223519 | 26 | 212 | 1.6 | 25.7 | 0.00 | 0.00 | 0.00 | 31 | 1007.6 |
| 20260505223039 | 26 | 254 | 4.8 | 25.7 | 0.00 | 0.00 | 0.00 | 32 | 1007.7 |
| 20260505222520 | 26 | 0 | 1.6 | 16.1 | 0.00 | 0.00 | 0.00 | 31 | 1007.8 |
| 20260505222017 | 26 | 190 | 1.6 | 19.3 | 0.00 | 0.00 | 0.00 | 31 | 1007.8 |
| 20260505221543 | 26 | 290 | 1.6 | 19.3 | 0.00 | 0.00 | 0.00 | 30 | 1007.7 |
| 20260505221020 | 26 | 0 | 4.8 | 22.5 | 0.00 | 0.00 | 0.00 | 30 | 1007.7 |
| 20260505220516 | 26 | 254 | 6.4 | 22.5 | 0.00 | 0.00 | 0.00 | 29 | 1007.8 |
| 20260505220049 | 26 | 240 | 4.8 | 20.9 | 0.00 | 0.00 | 0.00 | 30 | 1007.6 |
| 20260505215516 | 27 | 0 | 1.6 | 29.0 | 0.00 | 0.00 | 0.00 | 30 | 1007.8 |
| 20260505215017 | 27 | 249 | 6.4 | 29.0 | 0.00 | 0.00 | 0.00 | 29 | 1007.5 |
| 20260505214536 | 27 | 196 | 3.2 | 16.1 | 0.00 | 0.00 | 0.00 | 29 | 1007.5 |
| 20260505214015 | 27 | 194 | 1.6 | 20.9 | 0.00 | 0.00 | 0.00 | 28 | 1007.5 |
| 20260505213518 | 27 | 197 | 3.2 | 29.0 | 0.00 | 0.00 | 0.00 | 29 | 1007.4 |
| 20260505213034 | 27 | 215 | 4.8 | 29.0 | 0.00 | 0.00 | 0.00 | 27 | 1007.3 |
| 20260505212517 | 27 | 170 | 4.8 | 25.7 | 0.00 | 0.00 | 0.00 | 27 | 1007.2 |
| 20260505212016 | 28 | 315 | 3.2 | 22.5 | 0.00 | 0.00 | 0.00 | 26 | 1007.3 |
| 20260505211536 | 28 | 224 | 1.6 | 22.5 | 0.00 | 0.00 | 0.00 | 28 | 1007.4 |
| 20260505211021 | 28 | 224 | 4.8 | 22.5 | 0.00 | 0.00 | 0.00 | 28 | 1007.3 |
| 20260505210518 | 28 | 0 | 4.8 | 29.0 | 0.00 | 0.00 | 0.00 | 27 | 1007.2 |
| 20260505210037 | 28 | 248 | 6.4 | 43.5 | 0.00 | 0.00 | 0.00 | 27 | 1007.2 |
| 20260505205516 | 28 | 258 | 11.3 | 43.5 | 0.00 | 0.00 | 0.00 | 26 | 1007.3 |
| 20260505205015 | 28 | 240 | 1.6 | 22.5 | 0.00 | 0.00 | 0.00 | 30 | 1007.2 |
| 20260505204536 | 28 | 90 | 4.8 | 25.7 | 0.00 | 0.00 | 0.00 | 29 | 1007.2 |
| 20260505204017 | 28 | 225 | 4.8 | 25.7 | 0.00 | 0.00 | 0.00 | 29 | 1007.3 |
| 20260505203518 | 28 | 140 | 6.4 | 22.5 | 0.00 | 0.00 | 0.00 | 28 | 1007.3 |
| 20260505203033 | 28 | 224 | 4.8 | 22.5 | 0.00 | 0.00 | 0.00 | 30 | 1007.3 |
| 20260505202518 | 28 | 148 | 4.8 | 33.8 | 0.00 | 0.00 | 0.00 | 30 | 1007.2 |